sensor_id;sensor_type;location;lat;lon;timestamp;P1;durP1;ratioP1;P2;durP2;ratioP2
17618;SDS011;8928;51.678;6.074;2022-12-13T00:01:05;60.70;;;21.30;;
17618;SDS011;8928;51.678;6.074;2022-12-13T00:03:56;64.57;;;22.07;;
17618;SDS011;8928;51.678;6.074;2022-12-13T00:06:44;67.07;;;23.00;;
17618;SDS011;8928;51.678;6.074;2022-12-13T00:09:32;71.20;;;22.10;;
17618;SDS011;8928;51.678;6.074;2022-12-13T00:12:19;62.37;;;21.90;;
17618;SDS011;8928;51.678;6.074;2022-12-13T00:15:08;62.80;;;21.83;;
17618;SDS011;8928;51.678;6.074;2022-12-13T00:17:56;63.20;;;22.13;;
17618;SDS011;8928;51.678;6.074;2022-12-13T00:20:43;59.23;;;21.50;;
17618;SDS011;8928;51.678;6.074;2022-12-13T00:23:30;60.50;;;21.87;;
17618;SDS011;8928;51.678;6.074;2022-12-13T00:26:18;62.27;;;21.27;;
17618;SDS011;8928;51.678;6.074;2022-12-13T00:29:07;61.27;;;20.53;;
17618;SDS011;8928;51.678;6.074;2022-12-13T00:31:55;60.17;;;21.17;;
17618;SDS011;8928;51.678;6.074;2022-12-13T00:34:43;56.37;;;20.80;;
17618;SDS011;8928;51.678;6.074;2022-12-13T00:37:30;63.07;;;21.23;;
17618;SDS011;8928;51.678;6.074;2022-12-13T00:40:17;68.10;;;21.50;;
17618;SDS011;8928;51.678;6.074;2022-12-13T00:43:04;63.60;;;22.00;;
17618;SDS011;8928;51.678;6.074;2022-12-13T00:45:51;57.80;;;20.00;;
17618;SDS011;8928;51.678;6.074;2022-12-13T00:48:39;57.40;;;20.33;;
17618;SDS011;8928;51.678;6.074;2022-12-13T00:51:27;67.10;;;19.90;;
17618;SDS011;8928;51.678;6.074;2022-12-13T00:54:17;56.03;;;19.83;;
17618;SDS011;8928;51.678;6.074;2022-12-13T00:57:04;56.43;;;19.70;;
17618;SDS011;8928;51.678;6.074;2022-12-13T00:59:51;54.57;;;20.20;;
17618;SDS011;8928;51.678;6.074;2022-12-13T01:02:38;55.53;;;19.20;;
17618;SDS011;8928;51.678;6.074;2022-12-13T01:05:27;62.83;;;20.10;;
17618;SDS011;8928;51.678;6.074;2022-12-13T01:08:14;54.93;;;19.17;;
17618;SDS011;8928;51.678;6.074;2022-12-13T01:11:01;59.50;;;19.97;;
17618;SDS011;8928;51.678;6.074;2022-12-13T01:13:49;53.57;;;19.53;;
17618;SDS011;8928;51.678;6.074;2022-12-13T01:16:36;57.87;;;20.27;;
17618;SDS011;8928;51.678;6.074;2022-12-13T01:19:23;60.20;;;19.80;;
17618;SDS011;8928;51.678;6.074;2022-12-13T01:22:13;57.73;;;19.93;;
17618;SDS011;8928;51.678;6.074;2022-12-13T01:25:00;53.60;;;19.63;;
17618;SDS011;8928;51.678;6.074;2022-12-13T01:27:47;60.93;;;20.63;;
17618;SDS011;8928;51.678;6.074;2022-12-13T01:30:34;60.33;;;20.30;;
17618;SDS011;8928;51.678;6.074;2022-12-13T01:33:22;58.57;;;19.93;;
17618;SDS011;8928;51.678;6.074;2022-12-13T01:36:10;57.20;;;20.03;;
17618;SDS011;8928;51.678;6.074;2022-12-13T01:39:01;55.10;;;19.33;;
17618;SDS011;8928;51.678;6.074;2022-12-13T01:41:49;60.37;;;20.23;;
17618;SDS011;8928;51.678;6.074;2022-12-13T01:44:57;57.80;;;19.97;;
17618;SDS011;8928;51.678;6.074;2022-12-13T01:47:47;60.93;;;20.20;;
17618;SDS011;8928;51.678;6.074;2022-12-13T01:50:37;58.30;;;19.97;;
17618;SDS011;8928;51.678;6.074;2022-12-13T01:53:29;51.87;;;18.87;;
17618;SDS011;8928;51.678;6.074;2022-12-13T01:56:22;53.80;;;19.67;;
17618;SDS011;8928;51.678;6.074;2022-12-13T01:59:14;56.80;;;19.17;;
17618;SDS011;8928;51.678;6.074;2022-12-13T02:02:04;57.50;;;19.60;;
17618;SDS011;8928;51.678;6.074;2022-12-13T02:04:54;52.67;;;18.87;;
17618;SDS011;8928;51.678;6.074;2022-12-13T02:07:45;60.93;;;19.57;;
17618;SDS011;8928;51.678;6.074;2022-12-13T02:10:34;57.43;;;18.97;;
17618;SDS011;8928;51.678;6.074;2022-12-13T02:13:22;55.40;;;19.67;;
17618;SDS011;8928;51.678;6.074;2022-12-13T02:16:11;55.03;;;19.40;;
17618;SDS011;8928;51.678;6.074;2022-12-13T02:19:21;55.10;;;19.07;;
17618;SDS011;8928;51.678;6.074;2022-12-13T02:22:33;56.40;;;18.13;;
17618;SDS011;8928;51.678;6.074;2022-12-13T02:25:42;59.37;;;18.60;;
17618;SDS011;8928;51.678;6.074;2022-12-13T02:28:57;52.10;;;18.83;;
17618;SDS011;8928;51.678;6.074;2022-12-13T02:31:57;54.50;;;18.47;;
17618;SDS011;8928;51.678;6.074;2022-12-13T02:34:50;59.20;;;19.83;;
17618;SDS011;8928;51.678;6.074;2022-12-13T02:37:45;56.23;;;18.57;;
17618;SDS011;8928;51.678;6.074;2022-12-13T02:40:36;54.13;;;19.07;;
17618;SDS011;8928;51.678;6.074;2022-12-13T02:43:26;54.10;;;18.37;;
17618;SDS011;8928;51.678;6.074;2022-12-13T02:46:17;60.23;;;19.43;;
17618;SDS011;8928;51.678;6.074;2022-12-13T02:49:09;48.63;;;18.37;;
17618;SDS011;8928;51.678;6.074;2022-12-13T02:51:57;51.77;;;17.43;;
17618;SDS011;8928;51.678;6.074;2022-12-13T02:54:46;55.10;;;18.07;;
17618;SDS011;8928;51.678;6.074;2022-12-13T02:57:34;54.63;;;17.70;;
17618;SDS011;8928;51.678;6.074;2022-12-13T03:00:23;54.93;;;17.60;;
17618;SDS011;8928;51.678;6.074;2022-12-13T03:03:21;57.97;;;18.43;;
17618;SDS011;8928;51.678;6.074;2022-12-13T03:06:23;61.93;;;18.63;;
17618;SDS011;8928;51.678;6.074;2022-12-13T03:09:22;57.73;;;17.33;;
17618;SDS011;8928;51.678;6.074;2022-12-13T03:12:18;61.00;;;18.63;;
17618;SDS011;8928;51.678;6.074;2022-12-13T03:15:29;58.97;;;19.00;;
17618;SDS011;8928;51.678;6.074;2022-12-13T03:18:22;57.67;;;18.33;;
17618;SDS011;8928;51.678;6.074;2022-12-13T03:21:12;58.63;;;18.63;;
17618;SDS011;8928;51.678;6.074;2022-12-13T03:24:00;58.20;;;18.90;;
17618;SDS011;8928;51.678;6.074;2022-12-13T03:26:48;59.53;;;19.73;;
17618;SDS011;8928;51.678;6.074;2022-12-13T03:29:36;55.27;;;18.10;;
17618;SDS011;8928;51.678;6.074;2022-12-13T03:32:23;56.30;;;18.73;;
17618;SDS011;8928;51.678;6.074;2022-12-13T03:35:10;55.73;;;18.37;;
17618;SDS011;8928;51.678;6.074;2022-12-13T03:37:57;57.37;;;18.43;;
17618;SDS011;8928;51.678;6.074;2022-12-13T03:40:47;61.30;;;19.10;;
17618;SDS011;8928;51.678;6.074;2022-12-13T03:43:35;55.47;;;18.27;;
17618;SDS011;8928;51.678;6.074;2022-12-13T03:46:22;56.57;;;18.40;;
17618;SDS011;8928;51.678;6.074;2022-12-13T03:49:09;61.63;;;18.77;;
17618;SDS011;8928;51.678;6.074;2022-12-13T03:51:56;56.07;;;17.60;;
17618;SDS011;8928;51.678;6.074;2022-12-13T03:54:43;58.77;;;18.80;;
17618;SDS011;8928;51.678;6.074;2022-12-13T03:57:31;65.87;;;19.93;;
17618;SDS011;8928;51.678;6.074;2022-12-13T04:00:18;60.37;;;20.10;;
17618;SDS011;8928;51.678;6.074;2022-12-13T04:03:06;73.30;;;22.93;;
17618;SDS011;8928;51.678;6.074;2022-12-13T04:05:53;78.73;;;23.60;;
17618;SDS011;8928;51.678;6.074;2022-12-13T04:08:40;61.43;;;21.47;;
17618;SDS011;8928;51.678;6.074;2022-12-13T04:11:27;67.30;;;21.17;;
17618;SDS011;8928;51.678;6.074;2022-12-13T04:14:33;63.53;;;21.83;;
17618;SDS011;8928;51.678;6.074;2022-12-13T04:17:20;71.23;;;22.93;;
17618;SDS011;8928;51.678;6.074;2022-12-13T04:20:08;70.07;;;23.53;;
17618;SDS011;8928;51.678;6.074;2022-12-13T04:22:56;66.30;;;22.90;;
17618;SDS011;8928;51.678;6.074;2022-12-13T04:25:43;63.70;;;22.03;;
17618;SDS011;8928;51.678;6.074;2022-12-13T04:28:30;66.83;;;21.53;;
17618;SDS011;8928;51.678;6.074;2022-12-13T04:31:19;63.73;;;20.70;;
17618;SDS011;8928;51.678;6.074;2022-12-13T04:34:06;63.30;;;19.63;;
17618;SDS011;8928;51.678;6.074;2022-12-13T04:36:53;55.73;;;19.53;;
17618;SDS011;8928;51.678;6.074;2022-12-13T04:39:40;57.63;;;19.37;;
17618;SDS011;8928;51.678;6.074;2022-12-13T04:42:27;64.37;;;18.67;;
17618;SDS011;8928;51.678;6.074;2022-12-13T04:45:16;56.10;;;18.37;;
17618;SDS011;8928;51.678;6.074;2022-12-13T04:48:05;56.13;;;19.23;;
17618;SDS011;8928;51.678;6.074;2022-12-13T04:50:52;54.63;;;17.63;;
17618;SDS011;8928;51.678;6.074;2022-12-13T04:53:39;53.47;;;17.57;;
17618;SDS011;8928;51.678;6.074;2022-12-13T04:56:26;53.97;;;18.83;;
17618;SDS011;8928;51.678;6.074;2022-12-13T04:59:13;60.13;;;19.83;;
17618;SDS011;8928;51.678;6.074;2022-12-13T05:02:00;61.20;;;20.27;;
17618;SDS011;8928;51.678;6.074;2022-12-13T05:04:48;65.03;;;20.03;;
17618;SDS011;8928;51.678;6.074;2022-12-13T05:07:36;61.17;;;20.23;;
17618;SDS011;8928;51.678;6.074;2022-12-13T05:10:24;61.87;;;19.93;;
17618;SDS011;8928;51.678;6.074;2022-12-13T05:13:11;63.17;;;20.27;;
17618;SDS011;8928;51.678;6.074;2022-12-13T05:16:00;59.13;;;20.03;;
17618;SDS011;8928;51.678;6.074;2022-12-13T05:18:48;69.30;;;19.73;;
17618;SDS011;8928;51.678;6.074;2022-12-13T05:21:36;58.73;;;18.93;;
17618;SDS011;8928;51.678;6.074;2022-12-13T05:24:23;66.00;;;20.13;;
17618;SDS011;8928;51.678;6.074;2022-12-13T05:27:10;68.57;;;21.33;;
17618;SDS011;8928;51.678;6.074;2022-12-13T05:29:57;61.80;;;19.77;;
17618;SDS011;8928;51.678;6.074;2022-12-13T05:32:44;62.67;;;19.70;;
17618;SDS011;8928;51.678;6.074;2022-12-13T05:35:32;67.67;;;20.13;;
17618;SDS011;8928;51.678;6.074;2022-12-13T05:38:20;55.77;;;18.43;;
17618;SDS011;8928;51.678;6.074;2022-12-13T05:41:07;58.30;;;19.23;;
17618;SDS011;8928;51.678;6.074;2022-12-13T05:44:00;60.77;;;19.00;;
17618;SDS011;8928;51.678;6.074;2022-12-13T05:46:47;61.13;;;19.97;;
17618;SDS011;8928;51.678;6.074;2022-12-13T05:49:34;60.80;;;19.57;;
17618;SDS011;8928;51.678;6.074;2022-12-13T05:52:22;65.57;;;20.17;;
17618;SDS011;8928;51.678;6.074;2022-12-13T05:55:10;67.70;;;21.53;;
17618;SDS011;8928;51.678;6.074;2022-12-13T05:57:58;67.20;;;21.23;;
17618;SDS011;8928;51.678;6.074;2022-12-13T06:00:45;68.90;;;21.80;;
17618;SDS011;8928;51.678;6.074;2022-12-13T06:03:32;68.00;;;21.83;;
17618;SDS011;8928;51.678;6.074;2022-12-13T06:06:19;67.33;;;21.93;;
17618;SDS011;8928;51.678;6.074;2022-12-13T06:09:06;65.17;;;21.03;;
17618;SDS011;8928;51.678;6.074;2022-12-13T06:11:55;65.43;;;20.67;;
17618;SDS011;8928;51.678;6.074;2022-12-13T06:14:42;74.33;;;22.87;;
17618;SDS011;8928;51.678;6.074;2022-12-13T06:17:29;77.50;;;21.67;;
17618;SDS011;8928;51.678;6.074;2022-12-13T06:20:17;73.40;;;22.80;;
17618;SDS011;8928;51.678;6.074;2022-12-13T06:23:04;64.10;;;21.03;;
17618;SDS011;8928;51.678;6.074;2022-12-13T06:25:51;69.23;;;21.40;;
17618;SDS011;8928;51.678;6.074;2022-12-13T06:28:39;61.47;;;19.80;;
17618;SDS011;8928;51.678;6.074;2022-12-13T06:31:26;64.83;;;20.90;;
17618;SDS011;8928;51.678;6.074;2022-12-13T06:34:13;62.83;;;20.83;;
17618;SDS011;8928;51.678;6.074;2022-12-13T06:37:00;69.23;;;21.70;;
17618;SDS011;8928;51.678;6.074;2022-12-13T06:39:49;69.03;;;20.43;;
17618;SDS011;8928;51.678;6.074;2022-12-13T06:42:36;65.13;;;20.60;;
17618;SDS011;8928;51.678;6.074;2022-12-13T06:45:24;65.37;;;21.00;;
17618;SDS011;8928;51.678;6.074;2022-12-13T06:48:11;68.10;;;21.70;;
17618;SDS011;8928;51.678;6.074;2022-12-13T06:50:59;70.80;;;21.07;;
17618;SDS011;8928;51.678;6.074;2022-12-13T06:53:47;65.53;;;21.73;;
17618;SDS011;8928;51.678;6.074;2022-12-13T06:56:35;66.23;;;20.10;;
17618;SDS011;8928;51.678;6.074;2022-12-13T06:59:22;65.60;;;20.27;;
17618;SDS011;8928;51.678;6.074;2022-12-13T07:02:10;62.00;;;20.67;;
17618;SDS011;8928;51.678;6.074;2022-12-13T07:04:57;62.70;;;20.30;;
17618;SDS011;8928;51.678;6.074;2022-12-13T07:07:44;65.50;;;21.40;;
17618;SDS011;8928;51.678;6.074;2022-12-13T07:10:31;65.00;;;20.93;;
17618;SDS011;8928;51.678;6.074;2022-12-13T07:13:19;66.83;;;20.97;;
17618;SDS011;8928;51.678;6.074;2022-12-13T07:16:06;60.87;;;20.73;;
17618;SDS011;8928;51.678;6.074;2022-12-13T07:18:55;65.97;;;21.27;;
17618;SDS011;8928;51.678;6.074;2022-12-13T07:21:43;63.80;;;20.33;;
17618;SDS011;8928;51.678;6.074;2022-12-13T07:24:30;68.43;;;21.63;;
17618;SDS011;8928;51.678;6.074;2022-12-13T07:27:17;65.10;;;20.67;;
17618;SDS011;8928;51.678;6.074;2022-12-13T07:30:04;60.53;;;20.47;;
17618;SDS011;8928;51.678;6.074;2022-12-13T07:32:52;68.93;;;21.20;;
17618;SDS011;8928;51.678;6.074;2022-12-13T07:35:40;68.53;;;20.93;;
17618;SDS011;8928;51.678;6.074;2022-12-13T07:38:28;66.87;;;21.03;;
17618;SDS011;8928;51.678;6.074;2022-12-13T07:41:15;64.47;;;21.03;;
17618;SDS011;8928;51.678;6.074;2022-12-13T07:44:02;66.30;;;20.13;;
17618;SDS011;8928;51.678;6.074;2022-12-13T07:46:49;67.67;;;21.90;;
17618;SDS011;8928;51.678;6.074;2022-12-13T07:49:36;62.07;;;20.43;;
17618;SDS011;8928;51.678;6.074;2022-12-13T07:52:26;63.40;;;20.53;;
17618;SDS011;8928;51.678;6.074;2022-12-13T07:55:13;64.70;;;21.03;;
17618;SDS011;8928;51.678;6.074;2022-12-13T07:58:04;71.67;;;21.57;;
17618;SDS011;8928;51.678;6.074;2022-12-13T08:00:52;63.23;;;20.90;;
17618;SDS011;8928;51.678;6.074;2022-12-13T08:03:46;67.17;;;22.07;;
17618;SDS011;8928;51.678;6.074;2022-12-13T08:06:33;70.73;;;22.13;;
17618;SDS011;8928;51.678;6.074;2022-12-13T08:09:22;72.03;;;22.07;;
17618;SDS011;8928;51.678;6.074;2022-12-13T08:12:09;64.53;;;21.50;;
17618;SDS011;8928;51.678;6.074;2022-12-13T08:14:56;70.53;;;21.27;;
17618;SDS011;8928;51.678;6.074;2022-12-13T08:17:43;71.50;;;22.27;;
17618;SDS011;8928;51.678;6.074;2022-12-13T08:20:30;72.97;;;22.80;;
17618;SDS011;8928;51.678;6.074;2022-12-13T08:23:18;74.53;;;23.37;;
17618;SDS011;8928;51.678;6.074;2022-12-13T08:26:06;78.90;;;23.33;;
17618;SDS011;8928;51.678;6.074;2022-12-13T08:28:53;72.23;;;23.53;;
17618;SDS011;8928;51.678;6.074;2022-12-13T08:31:40;78.33;;;23.93;;
17618;SDS011;8928;51.678;6.074;2022-12-13T08:34:27;83.27;;;24.53;;
17618;SDS011;8928;51.678;6.074;2022-12-13T08:37:16;87.23;;;25.30;;
17618;SDS011;8928;51.678;6.074;2022-12-13T08:40:03;81.57;;;25.70;;
17618;SDS011;8928;51.678;6.074;2022-12-13T08:42:54;89.97;;;25.93;;
17618;SDS011;8928;51.678;6.074;2022-12-13T08:45:41;83.57;;;26.30;;
17618;SDS011;8928;51.678;6.074;2022-12-13T08:48:28;83.53;;;27.43;;
17618;SDS011;8928;51.678;6.074;2022-12-13T08:51:16;84.57;;;27.27;;
17618;SDS011;8928;51.678;6.074;2022-12-13T08:54:08;97.77;;;27.87;;
17618;SDS011;8928;51.678;6.074;2022-12-13T08:56:55;94.17;;;28.30;;
17618;SDS011;8928;51.678;6.074;2022-12-13T08:59:45;89.83;;;27.87;;
17618;SDS011;8928;51.678;6.074;2022-12-13T09:02:32;83.50;;;28.13;;
17618;SDS011;8928;51.678;6.074;2022-12-13T09:05:19;95.37;;;28.40;;
17618;SDS011;8928;51.678;6.074;2022-12-13T09:08:06;92.87;;;29.10;;
17618;SDS011;8928;51.678;6.074;2022-12-13T09:10:55;96.47;;;28.87;;
17618;SDS011;8928;51.678;6.074;2022-12-13T09:13:43;85.10;;;28.10;;
17618;SDS011;8928;51.678;6.074;2022-12-13T09:16:32;91.50;;;28.93;;
17618;SDS011;8928;51.678;6.074;2022-12-13T09:19:21;87.87;;;28.20;;
17618;SDS011;8928;51.678;6.074;2022-12-13T09:22:10;85.33;;;28.93;;
17618;SDS011;8928;51.678;6.074;2022-12-13T09:24:57;88.00;;;28.20;;
17618;SDS011;8928;51.678;6.074;2022-12-13T09:27:44;79.80;;;27.50;;
17618;SDS011;8928;51.678;6.074;2022-12-13T09:30:31;93.30;;;27.67;;
17618;SDS011;8928;51.678;6.074;2022-12-13T09:33:20;91.03;;;28.83;;
17618;SDS011;8928;51.678;6.074;2022-12-13T09:36:09;88.33;;;28.93;;
17618;SDS011;8928;51.678;6.074;2022-12-13T09:38:57;93.00;;;28.87;;
17618;SDS011;8928;51.678;6.074;2022-12-13T09:41:44;91.17;;;28.60;;
17618;SDS011;8928;51.678;6.074;2022-12-13T09:44:34;84.77;;;27.33;;
17618;SDS011;8928;51.678;6.074;2022-12-13T09:47:27;88.07;;;27.70;;
17618;SDS011;8928;51.678;6.074;2022-12-13T09:50:19;82.00;;;27.50;;
17618;SDS011;8928;51.678;6.074;2022-12-13T09:53:12;75.50;;;27.20;;
17618;SDS011;8928;51.678;6.074;2022-12-13T09:56:02;81.63;;;26.83;;
17618;SDS011;8928;51.678;6.074;2022-12-13T09:58:50;85.77;;;27.43;;
17618;SDS011;8928;51.678;6.074;2022-12-13T10:01:38;83.87;;;27.43;;
17618;SDS011;8928;51.678;6.074;2022-12-13T10:04:26;86.27;;;28.50;;
17618;SDS011;8928;51.678;6.074;2022-12-13T10:07:16;86.93;;;26.93;;
17618;SDS011;8928;51.678;6.074;2022-12-13T10:10:05;80.60;;;26.90;;
17618;SDS011;8928;51.678;6.074;2022-12-13T10:12:56;76.73;;;26.57;;
17618;SDS011;8928;51.678;6.074;2022-12-13T10:15:47;82.90;;;27.50;;
17618;SDS011;8928;51.678;6.074;2022-12-13T10:18:38;82.83;;;27.03;;
17618;SDS011;8928;51.678;6.074;2022-12-13T10:21:28;80.40;;;27.00;;
17618;SDS011;8928;51.678;6.074;2022-12-13T10:24:23;76.47;;;26.50;;
17618;SDS011;8928;51.678;6.074;2022-12-13T10:27:15;76.47;;;26.93;;
17618;SDS011;8928;51.678;6.074;2022-12-13T10:30:05;79.67;;;27.37;;
17618;SDS011;8928;51.678;6.074;2022-12-13T10:32:55;77.80;;;26.47;;
17618;SDS011;8928;51.678;6.074;2022-12-13T10:35:43;73.73;;;25.47;;
17618;SDS011;8928;51.678;6.074;2022-12-13T10:38:46;74.93;;;26.13;;
17618;SDS011;8928;51.678;6.074;2022-12-13T10:41:35;79.30;;;25.90;;
17618;SDS011;8928;51.678;6.074;2022-12-13T10:44:24;71.70;;;26.27;;
17618;SDS011;8928;51.678;6.074;2022-12-13T10:47:12;62.37;;;25.03;;
17618;SDS011;8928;51.678;6.074;2022-12-13T10:50:02;70.63;;;25.90;;
17618;SDS011;8928;51.678;6.074;2022-12-13T10:52:50;63.80;;;24.97;;
17618;SDS011;8928;51.678;6.074;2022-12-13T10:55:37;63.60;;;24.27;;
17618;SDS011;8928;51.678;6.074;2022-12-13T10:58:34;64.70;;;24.50;;
17618;SDS011;8928;51.678;6.074;2022-12-13T11:01:23;58.67;;;23.63;;
17618;SDS011;8928;51.678;6.074;2022-12-13T11:04:19;60.60;;;24.37;;
17618;SDS011;8928;51.678;6.074;2022-12-13T11:07:20;57.20;;;22.33;;
17618;SDS011;8928;51.678;6.074;2022-12-13T11:10:15;56.37;;;22.90;;
17618;SDS011;8928;51.678;6.074;2022-12-13T11:13:07;57.20;;;22.63;;
17618;SDS011;8928;51.678;6.074;2022-12-13T11:15:55;56.27;;;22.57;;
17618;SDS011;8928;51.678;6.074;2022-12-13T11:18:43;59.50;;;22.10;;
17618;SDS011;8928;51.678;6.074;2022-12-13T11:21:37;56.50;;;22.30;;
17618;SDS011;8928;51.678;6.074;2022-12-13T11:24:25;58.00;;;21.57;;
17618;SDS011;8928;51.678;6.074;2022-12-13T11:30:34;55.73;;;22.00;;
17618;SDS011;8928;51.678;6.074;2022-12-13T11:33:32;56.17;;;22.00;;
17618;SDS011;8928;51.678;6.074;2022-12-13T11:36:30;52.93;;;20.97;;
17618;SDS011;8928;51.678;6.074;2022-12-13T11:39:27;56.50;;;22.17;;
17618;SDS011;8928;51.678;6.074;2022-12-13T11:42:18;49.87;;;21.00;;
17618;SDS011;8928;51.678;6.074;2022-12-13T11:45:12;54.90;;;21.80;;
17618;SDS011;8928;51.678;6.074;2022-12-13T11:48:03;51.80;;;21.13;;
17618;SDS011;8928;51.678;6.074;2022-12-13T11:50:57;50.93;;;20.93;;
17618;SDS011;8928;51.678;6.074;2022-12-13T11:53:48;49.33;;;20.63;;
17618;SDS011;8928;51.678;6.074;2022-12-13T11:56:42;48.07;;;19.73;;
17618;SDS011;8928;51.678;6.074;2022-12-13T11:59:32;47.77;;;20.20;;
17618;SDS011;8928;51.678;6.074;2022-12-13T12:02:25;45.10;;;18.70;;
17618;SDS011;8928;51.678;6.074;2022-12-13T12:05:24;45.93;;;19.00;;
17618;SDS011;8928;51.678;6.074;2022-12-13T12:08:19;45.97;;;19.27;;
17618;SDS011;8928;51.678;6.074;2022-12-13T12:11:11;47.10;;;19.60;;
17618;SDS011;8928;51.678;6.074;2022-12-13T12:14:07;45.43;;;18.60;;
17618;SDS011;8928;51.678;6.074;2022-12-13T12:17:02;48.23;;;19.37;;
17618;SDS011;8928;51.678;6.074;2022-12-13T12:19:51;42.13;;;17.83;;
17618;SDS011;8928;51.678;6.074;2022-12-13T12:22:42;42.47;;;18.37;;
17618;SDS011;8928;51.678;6.074;2022-12-13T12:25:39;42.60;;;17.87;;
17618;SDS011;8928;51.678;6.074;2022-12-13T12:28:34;43.13;;;18.47;;
17618;SDS011;8928;51.678;6.074;2022-12-13T12:31:34;43.60;;;17.97;;
17618;SDS011;8928;51.678;6.074;2022-12-13T12:34:30;40.07;;;17.53;;
17618;SDS011;8928;51.678;6.074;2022-12-13T12:37:28;44.80;;;18.43;;
17618;SDS011;8928;51.678;6.074;2022-12-13T12:40:32;52.37;;;21.03;;
17618;SDS011;8928;51.678;6.074;2022-12-13T12:43:44;45.20;;;18.73;;
17618;SDS011;8928;51.678;6.074;2022-12-13T12:46:45;49.63;;;20.97;;
17618;SDS011;8928;51.678;6.074;2022-12-13T12:49:53;56.13;;;21.30;;
17618;SDS011;8928;51.678;6.074;2022-12-13T12:53:10;50.70;;;19.67;;
17618;SDS011;8928;51.678;6.074;2022-12-13T12:56:21;45.73;;;19.67;;
17618;SDS011;8928;51.678;6.074;2022-12-13T12:59:17;46.07;;;19.80;;
17618;SDS011;8928;51.678;6.074;2022-12-13T13:02:14;48.90;;;18.60;;
17618;SDS011;8928;51.678;6.074;2022-12-13T13:05:09;45.50;;;19.73;;
17618;SDS011;8928;51.678;6.074;2022-12-13T13:08:03;48.37;;;19.53;;
17618;SDS011;8928;51.678;6.074;2022-12-13T13:10:57;47.67;;;19.77;;
17618;SDS011;8928;51.678;6.074;2022-12-13T13:13:47;50.13;;;20.20;;
17618;SDS011;8928;51.678;6.074;2022-12-13T13:16:45;57.60;;;22.70;;
17618;SDS011;8928;51.678;6.074;2022-12-13T13:19:39;60.67;;;23.53;;
17618;SDS011;8928;51.678;6.074;2022-12-13T13:22:30;52.50;;;21.67;;
17618;SDS011;8928;51.678;6.074;2022-12-13T13:25:23;49.73;;;22.40;;
17618;SDS011;8928;51.678;6.074;2022-12-13T13:28:16;51.23;;;20.67;;
17618;SDS011;8928;51.678;6.074;2022-12-13T13:31:05;47.77;;;20.67;;
17618;SDS011;8928;51.678;6.074;2022-12-13T13:33:54;47.77;;;19.73;;
17618;SDS011;8928;51.678;6.074;2022-12-13T13:36:44;44.70;;;19.67;;
17618;SDS011;8928;51.678;6.074;2022-12-13T13:43:00;48.77;;;19.63;;
17618;SDS011;8928;51.678;6.074;2022-12-13T13:45:52;49.20;;;19.57;;
17618;SDS011;8928;51.678;6.074;2022-12-13T13:48:55;47.47;;;18.93;;
17618;SDS011;8928;51.678;6.074;2022-12-13T13:52:00;47.50;;;18.73;;
17618;SDS011;8928;51.678;6.074;2022-12-13T13:55:12;44.53;;;19.03;;
17618;SDS011;8928;51.678;6.074;2022-12-13T14:08:40;43.37;;;19.07;;
17618;SDS011;8928;51.678;6.074;2022-12-13T14:15:14;45.57;;;17.80;;
17618;SDS011;8928;51.678;6.074;2022-12-13T14:18:45;44.67;;;18.17;;
17618;SDS011;8928;51.678;6.074;2022-12-13T14:25:27;45.40;;;17.87;;
17618;SDS011;8928;51.678;6.074;2022-12-13T14:31:33;54.63;;;18.17;;
17618;SDS011;8928;51.678;6.074;2022-12-13T14:34:23;45.00;;;18.00;;
17618;SDS011;8928;51.678;6.074;2022-12-13T14:37:20;44.60;;;17.93;;
17618;SDS011;8928;51.678;6.074;2022-12-13T14:40:21;46.13;;;18.07;;
17618;SDS011;8928;51.678;6.074;2022-12-13T14:43:19;42.13;;;17.67;;
17618;SDS011;8928;51.678;6.074;2022-12-13T14:46:09;46.53;;;18.57;;
17618;SDS011;8928;51.678;6.074;2022-12-13T14:49:00;48.67;;;17.80;;
17618;SDS011;8928;51.678;6.074;2022-12-13T14:51:48;44.60;;;17.83;;
17618;SDS011;8928;51.678;6.074;2022-12-13T14:54:46;52.27;;;20.07;;
17618;SDS011;8928;51.678;6.074;2022-12-13T14:57:36;52.97;;;19.87;;
17618;SDS011;8928;51.678;6.074;2022-12-13T15:00:25;62.43;;;21.80;;
17618;SDS011;8928;51.678;6.074;2022-12-13T15:03:19;61.30;;;24.53;;
17618;SDS011;8928;51.678;6.074;2022-12-13T15:06:07;59.50;;;22.73;;
17618;SDS011;8928;51.678;6.074;2022-12-13T15:08:54;60.37;;;22.53;;
17618;SDS011;8928;51.678;6.074;2022-12-13T15:11:43;56.37;;;22.70;;
17618;SDS011;8928;51.678;6.074;2022-12-13T15:14:30;54.40;;;22.30;;
17618;SDS011;8928;51.678;6.074;2022-12-13T15:17:25;55.17;;;21.70;;
17618;SDS011;8928;51.678;6.074;2022-12-13T15:20:22;52.23;;;20.93;;
17618;SDS011;8928;51.678;6.074;2022-12-13T15:23:12;53.23;;;20.80;;
17618;SDS011;8928;51.678;6.074;2022-12-13T15:26:06;53.67;;;20.57;;
17618;SDS011;8928;51.678;6.074;2022-12-13T15:28:58;57.17;;;20.17;;
17618;SDS011;8928;51.678;6.074;2022-12-13T15:31:47;54.73;;;20.43;;
17618;SDS011;8928;51.678;6.074;2022-12-13T15:34:34;53.23;;;19.80;;
17618;SDS011;8928;51.678;6.074;2022-12-13T15:37:23;59.33;;;21.37;;
17618;SDS011;8928;51.678;6.074;2022-12-13T15:40:14;50.60;;;20.17;;
17618;SDS011;8928;51.678;6.074;2022-12-13T15:43:01;62.03;;;21.27;;
17618;SDS011;8928;51.678;6.074;2022-12-13T15:45:50;64.87;;;22.60;;
17618;SDS011;8928;51.678;6.074;2022-12-13T15:48:39;61.13;;;22.67;;
17618;SDS011;8928;51.678;6.074;2022-12-13T15:51:28;58.80;;;23.77;;
17618;SDS011;8928;51.678;6.074;2022-12-13T15:54:17;58.47;;;22.90;;
17618;SDS011;8928;51.678;6.074;2022-12-13T15:57:11;67.17;;;26.10;;
17618;SDS011;8928;51.678;6.074;2022-12-13T16:00:01;65.17;;;24.30;;
17618;SDS011;8928;51.678;6.074;2022-12-13T16:02:54;58.07;;;23.13;;
17618;SDS011;8928;51.678;6.074;2022-12-13T16:05:45;60.80;;;23.40;;
17618;SDS011;8928;51.678;6.074;2022-12-13T16:08:35;65.40;;;24.40;;
17618;SDS011;8928;51.678;6.074;2022-12-13T16:11:25;62.23;;;24.70;;
17618;SDS011;8928;51.678;6.074;2022-12-13T16:14:34;63.30;;;24.33;;
17618;SDS011;8928;51.678;6.074;2022-12-13T16:17:27;64.03;;;25.80;;
17618;SDS011;8928;51.678;6.074;2022-12-13T16:20:16;66.07;;;25.43;;
17618;SDS011;8928;51.678;6.074;2022-12-13T16:23:03;70.70;;;26.70;;
17618;SDS011;8928;51.678;6.074;2022-12-13T16:25:50;69.03;;;26.37;;
17618;SDS011;8928;51.678;6.074;2022-12-13T16:28:38;64.70;;;25.47;;
17618;SDS011;8928;51.678;6.074;2022-12-13T16:31:25;68.80;;;27.10;;
17618;SDS011;8928;51.678;6.074;2022-12-13T16:34:19;79.27;;;29.70;;
17618;SDS011;8928;51.678;6.074;2022-12-13T16:37:08;78.63;;;29.27;;
17618;SDS011;8928;51.678;6.074;2022-12-13T16:39:58;112.20;;;34.97;;
17618;SDS011;8928;51.678;6.074;2022-12-13T16:42:46;112.83;;;35.73;;
17618;SDS011;8928;51.678;6.074;2022-12-13T16:45:34;87.47;;;31.73;;
17618;SDS011;8928;51.678;6.074;2022-12-13T16:48:24;90.37;;;32.67;;
17618;SDS011;8928;51.678;6.074;2022-12-13T16:51:11;73.23;;;29.63;;
17618;SDS011;8928;51.678;6.074;2022-12-13T16:54:00;67.77;;;26.93;;
17618;SDS011;8928;51.678;6.074;2022-12-13T16:56:48;66.13;;;26.57;;
17618;SDS011;8928;51.678;6.074;2022-12-13T16:59:35;64.97;;;26.30;;
17618;SDS011;8928;51.678;6.074;2022-12-13T17:02:22;69.27;;;26.77;;
17618;SDS011;8928;51.678;6.074;2022-12-13T17:05:09;75.07;;;27.23;;
17618;SDS011;8928;51.678;6.074;2022-12-13T17:07:56;65.53;;;26.97;;
17618;SDS011;8928;51.678;6.074;2022-12-13T17:10:44;69.63;;;28.03;;
17618;SDS011;8928;51.678;6.074;2022-12-13T17:13:31;75.23;;;28.67;;
17618;SDS011;8928;51.678;6.074;2022-12-13T17:16:19;69.37;;;27.63;;
17618;SDS011;8928;51.678;6.074;2022-12-13T17:19:06;66.30;;;26.87;;